Raymond, ME

1:30 PM EST on December 18, 2014 (GMT -0500)
Tenney Hill | Change Station
CLOSE
Current Station
Personal Weather Station
Location: Raymond, ME
Elevation: 722 ft
Nearby Weather Stations

Elev 722 ft 43.99 °N, 70.43 °W | Updated 14 minutes ago

Mostly Cloudy
Mostly Cloudy
36.8 °F
Feels Like 33 °F
N
5.0
Wind Variable Wind from NNW
Gusts 12.0 mph

Today
High -- | Low -- °F
--% Chance of Precip.
Yesterday
High -- | Low -- °F
Precip. -- in
7:11 AM 4:05 PM
Waning Crescent, 13% visible
Pressure 29.67 in
Visibility 10.0 miles
Clouds Scattered Clouds 3500 ft
Scattered Clouds 5500 ft
Overcast 7000 ft
Windchill 33 °F
Dew Point 28 °F
Humidity 70%
Rainfall 0.02 in
Snow Depth Not available.
UV 0 out of 12
Pollen .10 out of 12
Air Quality Not available.
Flu Activity Not available.
METAR KLEW 181815Z AUTO 31013G18KT 10SM SCT035 SCT055 OVC070 04/M03 A2967 RMK AO1

More Conditions Fewer Conditions

Pressure 29.67 in
Visibility 10.0 miles
Clouds Scattered Clouds 3500 ft
Scattered Clouds 5500 ft
Overcast 7000 ft
Windchill 33 °F
Dew Point 28 °F
Humidity 70%
Rainfall 0.02 in
Snow Depth Not available.
UV 0 out of 12
Pollen .10 out of 12
Air Quality Not available.
Flu Activity Not available.
METAR KLEW 181815Z AUTO 31013G18KT 10SM SCT035 SCT055 OVC070 04/M03 A2967 RMK AO1

More Conditions Fewer Conditions

10-Day Weather Forecast

Almanac

Astronomy

Dec. 18, 2014 Rise Set
Actual Time
Civil Twilight
Nautical Twilight
Astronomical Twilight
Moon
Length of Visible Light
Length of Day
Tomorrow will be .
, % of the Moon is Illuminated

Today's Extremes

State Highs State Lows

Community

WunderPhotos

Upload Photos

1,778,973 photos uploaded!

WunderBlogs® & News

Nearby

Air Quality

  Air Quality AQ Index Pollutant
Not available.

Snow Depth

Station Depth Elevation

Earthquake Activity

City Distance Mag. Time & Date
Minimum magnitude displayed is 2.5.

Coastal Water Temperatures

Place Temperature

Nearby Weather Stations